Stevens Point, WI

11:47 AM CDT on March 28, 2017 (GMT -0500)
Stevens Point Municipal

Weather History for KSTE - June, 2014

Change the Weather History Date:

Tuesday, June 3, 2014

  Actual Average Record
Temperature  
Mean Temperature 64 °F -  
Max Temperature 72 °F 72 °F 93 °F (1948)
Min Temperature 54 °F 48 °F 35 °F (2013)
Degree Days  
Heating Degree Days 2    
Growing Degree Days 14 (Base 50)    
Moisture  
Dew Point 50 °F    
Average Humidity 61    
Maximum Humidity 94    
Minimum Humidity 42    
Precipitation  
Precipitation 0.00 in - - ()
Sea Level Pressure  
Sea Level Pressure 29.86 in    
Wind  
Wind Speed 12 mph (West)    
Max Wind Speed 21 mph    
Max Gust Speed 31 mph    
Visibility 10 miles    
Events      
Averages and records for this station are not official NWS values.
T = Trace of Precipitation, MM = Missing Value Source: NWS Daily Summary

Daily Weather History Graph

Daily Weather History Graph

Search for Another Location

Airport or City:

Trip Planner

Search our weather history database for the weather conditions in past years. The results will help you decide how hot, cold, wet, or windy it might be!

Date:

Astronomy

Jun. 03, 2014 Rise Set
Actual Time 5:15 AM CDT 8:37 PM CDT
Civil Twilight 4:39 AM CDT 9:13 PM CDT
Nautical Twilight 3:52 AM CDT 10:01 PM CDT
Astronomical Twilight 2:53 AM CDT 11:00 PM CDT
Moon 10:47 AM CDT (6/3) No Moon Set
Length of Visible Light 16h 34m
Length of Day
15h 22m
Waxing Crescent, 30% of the Moon is Illuminated
Jun 3
Waxing Crescent
Jun 5
First Quarter
Jun 12
Full
Jun 19
Last Quarter
Jun 27
New

Hourly Weather History & Observations

Time (CDT) Temp. Dew Point Humidity Pressure Visibility Wind Dir Wind Speed Gust Speed Precip Events Conditions
12:15 AM 65.5 °F 54.5 °F 68% 29.72 in 10.0 mi WSW 13.8 mph 23.0 mph N/A   Clear
12:35 AM 64.9 °F 54.5 °F 69% 29.72 in 10.0 mi WSW 12.7 mph 27.6 mph N/A   Scattered Clouds
12:55 AM 64.4 °F 54.7 °F 71% 29.73 in 10.0 mi West 11.5 mph 19.6 mph N/A   Mostly Cloudy
1:15 AM 63.7 °F 51.6 °F 65% 29.73 in 10.0 mi West 15.0 mph 23.0 mph N/A   Overcast
1:35 AM 63.0 °F 51.4 °F 66% 29.73 in 10.0 mi West 15.0 mph 26.5 mph N/A   Overcast
1:55 AM 62.6 °F 50.9 °F 66% 29.73 in 10.0 mi West 18.4 mph 24.2 mph N/A   Overcast
2:15 AM 62.1 °F 49.8 °F 64% 29.74 in 10.0 mi West 18.4 mph 28.8 mph N/A   Overcast
2:35 AM 61.3 °F 49.1 °F 64% 29.74 in 10.0 mi West 20.7 mph 31.1 mph N/A   Overcast
2:55 AM 60.6 °F 48.6 °F 64% 29.74 in 10.0 mi West 16.1 mph 25.3 mph N/A   Overcast
3:15 AM 60.1 °F 48.4 °F 65% 29.75 in 10.0 mi West 15.0 mph 25.3 mph N/A   Overcast
3:35 AM 59.5 °F 48.6 °F 67% 29.76 in 10.0 mi West 10.4 mph 20.7 mph N/A   Overcast
3:55 AM 58.8 °F 48.7 °F 69% 29.76 in 10.0 mi West 16.1 mph 25.3 mph N/A   Mostly Cloudy
4:15 AM 58.5 °F 48.4 °F 69% 29.76 in 10.0 mi WSW 18.4 mph 31.1 mph N/A   Mostly Cloudy
4:35 AM 57.6 °F 48.2 °F 71% 29.78 in 10.0 mi West 15.0 mph 25.3 mph N/A   Overcast
4:55 AM 57.4 °F 48.2 °F 71% 29.78 in 10.0 mi West 13.8 mph 23.0 mph N/A   Overcast
5:15 AM 57.2 °F 48.2 °F 72% 29.79 in 10.0 mi West 15.0 mph 28.8 mph N/A   Overcast
5:35 AM 56.5 °F 48.2 °F 74% 29.80 in 10.0 mi West 12.7 mph 24.2 mph N/A   Overcast
5:55 AM 56.5 °F 48.2 °F 74% 29.81 in 10.0 mi West 12.7 mph 25.3 mph N/A   Overcast
6:15 AM 56.3 °F 47.5 °F 72% 29.83 in 10.0 mi West 16.1 mph 28.8 mph N/A   Mostly Cloudy
6:35 AM 55.9 °F 47.3 °F 73% 29.84 in 10.0 mi West 16.1 mph 23.0 mph N/A   Scattered Clouds
6:55 AM 56.3 °F 47.3 °F 72% 29.85 in 10.0 mi West 13.8 mph 23.0 mph N/A   Scattered Clouds
7:15 AM 56.3 °F 47.1 °F 71% 29.86 in 10.0 mi West 15.0 mph 21.9 mph N/A   Scattered Clouds
7:35 AM 56.8 °F 46.8 °F 69% 29.87 in 10.0 mi WNW 11.5 mph 20.7 mph N/A   Clear
7:55 AM 57.2 °F 46.9 °F 69% 29.88 in 10.0 mi West 6.9 mph 18.4 mph N/A   Mostly Cloudy
8:15 AM 58.1 °F 45.9 °F 64% 29.89 in 10.0 mi WNW 11.5 mph 21.9 mph N/A   Scattered Clouds
8:35 AM 58.6 °F 46.4 °F 64% 29.89 in 10.0 mi West 13.8 mph 24.2 mph N/A   Scattered Clouds
8:55 AM 59.7 °F 47.1 °F 63% 29.91 in 10.0 mi WNW 8.1 mph 18.4 mph N/A   Mostly Cloudy
9:15 AM 59.5 °F 47.7 °F 65% 29.91 in 10.0 mi WNW 8.1 mph 17.3 mph N/A   Mostly Cloudy
9:35 AM 60.1 °F 47.5 °F 63% 29.90 in 10.0 mi West 11.5 mph 19.6 mph N/A   Mostly Cloudy
9:55 AM 61.5 °F 48.0 °F 61% 29.91 in 10.0 mi WNW 15.0 mph 20.7 mph N/A   Mostly Cloudy
10:15 AM 60.8 °F 47.8 °F 62% 29.93 in 10.0 mi West 11.5 mph 19.6 mph N/A   Overcast
10:35 AM 62.1 °F 48.7 °F 62% 29.93 in 10.0 mi West 12.7 mph 19.6 mph N/A   Mostly Cloudy
10:55 AM 62.8 °F 48.9 °F 61% 29.93 in 10.0 mi WSW 12.7 mph 20.7 mph N/A   Mostly Cloudy
11:15 AM 64.8 °F 50.0 °F 59% 29.93 in 10.0 mi West 9.2 mph - N/A   Mostly Cloudy
11:35 AM 65.3 °F 48.9 °F 55% 29.93 in 10.0 mi West 16.1 mph 26.5 mph N/A   Mostly Cloudy
11:55 AM 66.6 °F 48.7 °F 53% 29.94 in 10.0 mi West 17.3 mph 25.3 mph N/A   Mostly Cloudy
12:15 PM 67.3 °F 48.4 °F 51% 29.93 in 10.0 mi West 16.1 mph 23.0 mph N/A   Mostly Cloudy
12:35 PM 67.8 °F 48.4 °F 50% 29.93 in 10.0 mi West 15.0 mph 26.5 mph N/A   Scattered Clouds
12:55 PM 68.2 °F 49.1 °F 50% 29.92 in 10.0 mi West 16.1 mph 24.2 mph N/A   Mostly Cloudy
1:15 PM 68.9 °F 49.5 °F 50% 29.92 in 10.0 mi West 16.1 mph 21.9 mph N/A   Mostly Cloudy
1:35 PM 69.1 °F 49.3 °F 49% 29.91 in 10.0 mi West 17.3 mph 24.2 mph N/A   Mostly Cloudy
1:55 PM 70.0 °F 49.6 °F 48% 29.91 in 10.0 mi West 15.0 mph 21.9 mph N/A   Mostly Cloudy
2:15 PM 70.2 °F 49.8 °F 48% 29.91 in 10.0 mi West 12.7 mph 25.3 mph N/A   Scattered Clouds
2:35 PM 70.5 °F 49.5 °F 47% 29.90 in 10.0 mi West 9.2 mph 21.9 mph N/A   Mostly Cloudy
2:55 PM 70.2 °F 49.1 °F 47% 29.90 in 10.0 mi West 6.9 mph 20.7 mph N/A   Mostly Cloudy
3:15 PM 72.0 °F 50.4 °F 46% 29.90 in 10.0 mi West 12.7 mph 19.6 mph N/A   Mostly Cloudy
3:35 PM 72.0 °F 49.1 °F 44% 29.90 in 10.0 mi West 12.7 mph 25.3 mph N/A   Mostly Cloudy
3:55 PM 72.3 °F 48.6 °F 43% 29.90 in 10.0 mi West 12.7 mph 21.9 mph N/A   Scattered Clouds
4:15 PM 72.7 °F 48.7 °F 43% 29.90 in 10.0 mi West 13.8 mph 24.2 mph N/A   Mostly Cloudy
4:35 PM 72.5 °F 49.8 °F 45% 29.89 in 10.0 mi WNW 9.2 mph 16.1 mph N/A   Scattered Clouds
4:55 PM 72.3 °F 48.6 °F 43% 29.89 in 10.0 mi West 12.7 mph 21.9 mph N/A   Scattered Clouds
5:15 PM 72.5 °F 48.9 °F 43% 29.89 in 10.0 mi West 11.5 mph 20.7 mph N/A   Scattered Clouds
5:35 PM 72.7 °F 48.9 °F 43% 29.89 in 10.0 mi WSW 15.0 mph 20.7 mph N/A   Scattered Clouds
5:55 PM 72.5 °F 48.2 °F 42% 29.89 in 10.0 mi West 10.4 mph 18.4 mph N/A   Scattered Clouds
6:15 PM 71.2 °F 48.7 °F 45% 29.89 in 10.0 mi West 8.1 mph - N/A   Scattered Clouds
6:35 PM 71.6 °F 48.2 °F 43% 29.89 in 10.0 mi West 10.4 mph 20.7 mph N/A   Scattered Clouds
6:55 PM 71.6 °F 49.3 °F 45% 29.89 in 10.0 mi WNW 6.9 mph 16.1 mph N/A   Clear
7:15 PM 70.7 °F 49.5 °F 47% 29.88 in 10.0 mi WNW 4.6 mph - N/A   Clear
7:35 PM 70.3 °F 49.5 °F 47% 29.87 in 10.0 mi West 5.8 mph - N/A   Clear
7:55 PM 69.4 °F 49.8 °F 50% 29.86 in 10.0 mi Calm Calm - N/A   Clear
8:15 PM 68.4 °F 50.5 °F 53% 29.87 in 10.0 mi Calm Calm - N/A   Clear
8:35 PM 67.5 °F 51.4 °F 56% 29.89 in 10.0 mi Calm Calm - N/A   Clear
8:55 PM 63.7 °F 52.2 °F 66% 29.88 in 10.0 mi Calm Calm - N/A   Clear
9:15 PM 61.3 °F 53.4 °F 75% 29.89 in 10.0 mi Calm Calm - N/A   Clear
9:35 PM 61.7 °F 52.0 °F 70% 29.90 in 10.0 mi Calm Calm - N/A   Clear
9:55 PM 58.8 °F 53.8 °F 83% 29.90 in 10.0 mi Calm Calm - N/A   Clear
10:15 PM 58.8 °F 52.7 °F 80% 29.91 in 10.0 mi Calm Calm - N/A   Clear
10:35 PM 57.6 °F 53.2 °F 85% 29.90 in 10.0 mi Calm Calm - N/A   Clear
10:55 PM 56.7 °F 51.8 °F 84% 29.90 in 10.0 mi Calm Calm - N/A   Clear
11:15 PM 56.3 °F 52.9 °F 88% 29.91 in 10.0 mi Calm Calm - N/A   Clear
11:35 PM 56.1 °F 52.0 °F 86% 29.90 in 10.0 mi Calm Calm - N/A   Clear
11:55 PM 54.5 °F 52.7 °F 94% 29.91 in 10.0 mi Calm Calm - N/A   Clear